Svetlana — 9HA3732 — position and weather

sailwx.info

Track history (hours):
 
Tides and Currents Weather Stations Pressure Air Temp Water Temp Dewpoint Dewpoint Depression Visibility Wind Speed Wind Dir Waves Ship Positions

Svetlana

Last reported at 2017-Oct-22 12:00 UTC. Time now 2017-Oct-22 12:11 UTC.
Position N 40°47' E 029°09'.

Length 133 m; draft 4.6 m.

Type: Ship. MMSI: 229936000.

Date/timePositionNaut miles runAvg speedWind from/ knotsBaromVisibWave heightAir tempDewpointWater temp
2017-Oct-22 12:00N 40°47' E 029°09'1 1.0
2017-Oct-22 11:29N 40°47' E 029°08'0 1.0
2017-Oct-22 11:00N 40°47' E 029°07'0 0.9
2017-Oct-22 10:30N 40°47' E 029°07'0 0.9
2017-Oct-22 10:00N 40°47' E 029°06'1 1.0
2017-Oct-22 09:28N 40°47' E 029°06'1 1.0
2017-Oct-22 08:58N 40°47' E 029°05'1 1.1
2017-Oct-22 08:29N 40°47' E 029°04'1 1.0
2017-Oct-22 07:59N 40°47' E 029°04'0 0.6
2017-Oct-22 07:30N 40°48' E 029°03'0 0.4
2017-Oct-22 06:59N 40°48' E 029°03'0 0.1
2017-Oct-22 06:29N 40°48' E 029°03'0 0.1
2017-Oct-22 06:00N 40°48' E 029°03'0 0.0
2017-Oct-22 05:30N 40°48' E 029°03'0 0.1
2017-Oct-22 05:00N 40°48' E 029°03'0 0.1
2017-Oct-22 04:30N 40°48' E 029°03'0 0.1
2017-Oct-22 03:58N 40°48' E 029°03'0 0.1
2017-Oct-22 03:30N 40°48' E 029°03'0 0.1
2017-Oct-22 03:00N 40°48' E 029°03'0 0.1
2017-Oct-22 02:29N 40°48' E 029°03'0 0.1
2017-Oct-22 02:00N 40°48' E 029°03'0 0.1
2017-Oct-22 01:25N 40°48' E 029°03'0 0.1
2017-Oct-22 01:00N 40°48' E 029°03'0 0.1
2017-Oct-22 00:30N 40°48' E 029°03'0 0.1
2017-Oct-22 00:00N 40°48' E 029°03'0 0.1
2017-Oct-21 23:28N 40°48' E 029°03'0 0.1
2017-Oct-21 23:00N 40°48' E 029°03'0 0.1
2017-Oct-21 22:30N 40°48' E 029°03'0 0.1
2017-Oct-21 22:00N 40°48' E 029°03'1 2.2
2017-Oct-21 21:30N 40°48' E 029°04'4 8.6
2017-Oct-21 20:59N 40°45' E 029°09'612.1
2017-Oct-21 20:30N 40°45' E 029°17'4 8.4
2017-Oct-21 20:00N 40°45' E 029°23'3 0.1
2017-Oct-19 21:47N 40°43' E 029°19'311.8
2017-Oct-19 21:30N 40°43' E 029°15'3211.9
2017-Oct-19 18:48N 40°44' E 028°32'  
2017-Oct-13 17:50N 36°26' E 014°41'513.5
2017-Oct-13 17:30N 36°26' E 014°36'713.5
2017-Oct-13 17:00N 36°26' E 014°27'713.4
2017-Oct-13 16:30N 36°27' E 014°19'713.4
2017-Oct-13 16:00N 36°28' E 014°11'2013.3
2017-Oct-13 14:28N 36°35' E 013°47'  
Track history (hours):
 
Tides and Currents Weather Stations Pressure Air Temp Water Temp Dewpoint Dewpoint Depression Visibility Wind Speed Wind Dir Waves Ship Positions

Svetlana

Last reported at 2017-Oct-22 12:00 UTC. Time now 2017-Oct-22 12:11 UTC.
Position N 40°47' E 029°09'.

Length 133 m; draft 4.6 m.

Type: Ship. MMSI: 229936000.

Date/timePositionNaut miles runAvg speedWind from/ knotsBaromVisibWave heightAir tempDewpointWater temp
2017-Oct-22 12:00N 40°47' E 029°09'1 1.0
2017-Oct-22 11:29N 40°47' E 029°08'0 1.0
2017-Oct-22 11:00N 40°47' E 029°07'0 0.9
2017-Oct-22 10:30N 40°47' E 029°07'0 0.9
2017-Oct-22 10:00N 40°47' E 029°06'1 1.0
2017-Oct-22 09:28N 40°47' E 029°06'1 1.0
2017-Oct-22 08:58N 40°47' E 029°05'1 1.1
2017-Oct-22 08:29N 40°47' E 029°04'1 1.0
2017-Oct-22 07:59N 40°47' E 029°04'0 0.6
2017-Oct-22 07:30N 40°48' E 029°03'0 0.4
2017-Oct-22 06:59N 40°48' E 029°03'0 0.1
2017-Oct-22 06:29N 40°48' E 029°03'0 0.1
2017-Oct-22 06:00N 40°48' E 029°03'0 0.0
2017-Oct-22 05:30N 40°48' E 029°03'0 0.1
2017-Oct-22 05:00N 40°48' E 029°03'0 0.1
2017-Oct-22 04:30N 40°48' E 029°03'0 0.1
2017-Oct-22 03:58N 40°48' E 029°03'0 0.1
2017-Oct-22 03:30N 40°48' E 029°03'0 0.1
2017-Oct-22 03:00N 40°48' E 029°03'0 0.1
2017-Oct-22 02:29N 40°48' E 029°03'0 0.1
2017-Oct-22 02:00N 40°48' E 029°03'0 0.1
2017-Oct-22 01:25N 40°48' E 029°03'0 0.1
2017-Oct-22 01:00N 40°48' E 029°03'0 0.1
2017-Oct-22 00:30N 40°48' E 029°03'0 0.1
2017-Oct-22 00:00N 40°48' E 029°03'0 0.1
2017-Oct-21 23:28N 40°48' E 029°03'0 0.1
2017-Oct-21 23:00N 40°48' E 029°03'0 0.1
2017-Oct-21 22:30N 40°48' E 029°03'0 0.1
2017-Oct-21 22:00N 40°48' E 029°03'1 2.2
2017-Oct-21 21:30N 40°48' E 029°04'4 8.6
2017-Oct-21 20:59N 40°45' E 029°09'612.1
2017-Oct-21 20:30N 40°45' E 029°17'4 8.4
2017-Oct-21 20:00N 40°45' E 029°23'3 0.1
2017-Oct-19 21:47N 40°43' E 029°19'311.8
2017-Oct-19 21:30N 40°43' E 029°15'3211.9
2017-Oct-19 18:48N 40°44' E 028°32'  
2017-Oct-13 17:50N 36°26' E 014°41'513.5
2017-Oct-13 17:30N 36°26' E 014°36'713.5
2017-Oct-13 17:00N 36°26' E 014°27'713.4
2017-Oct-13 16:30N 36°27' E 014°19'713.4
2017-Oct-13 16:00N 36°28' E 014°11'2013.3
2017-Oct-13 14:28N 36°35' E 013°47'  

Dump ship's entire track history